sensor_id;sensor_type;location;lat;lon;timestamp;P1;durP1;ratioP1;P2;durP2;ratioP2
47151;SDS011;32906;48.542;12.136;2022-07-10T00:00:33;2.28;;;2.08;;
47151;SDS011;32906;48.542;12.136;2022-07-10T00:03:01;2.28;;;1.98;;
47151;SDS011;32906;48.542;12.136;2022-07-10T00:05:30;3.67;;;2.05;;
47151;SDS011;32906;48.542;12.136;2022-07-10T00:07:59;4.70;;;2.20;;
47151;SDS011;32906;48.542;12.136;2022-07-10T00:10:27;2.22;;;1.75;;
47151;SDS011;32906;48.542;12.136;2022-07-10T00:12:55;2.47;;;2.17;;
47151;SDS011;32906;48.542;12.136;2022-07-10T00:15:22;1.90;;;1.73;;
47151;SDS011;32906;48.542;12.136;2022-07-10T00:17:50;2.78;;;1.65;;
47151;SDS011;32906;48.542;12.136;2022-07-10T00:20:17;2.45;;;2.25;;
47151;SDS011;32906;48.542;12.136;2022-07-10T00:22:46;2.22;;;2.03;;
47151;SDS011;32906;48.542;12.136;2022-07-10T00:25:13;2.53;;;1.63;;
47151;SDS011;32906;48.542;12.136;2022-07-10T00:27:41;3.67;;;2.45;;
47151;SDS011;32906;48.542;12.136;2022-07-10T00:30:09;2.35;;;2.15;;
47151;SDS011;32906;48.542;12.136;2022-07-10T00:32:36;2.50;;;2.30;;
47151;SDS011;32906;48.542;12.136;2022-07-10T00:35:04;3.17;;;2.42;;
47151;SDS011;32906;48.542;12.136;2022-07-10T00:37:31;4.35;;;2.25;;
47151;SDS011;32906;48.542;12.136;2022-07-10T00:40:00;2.97;;;2.05;;
47151;SDS011;32906;48.542;12.136;2022-07-10T00:42:27;2.15;;;1.90;;
47151;SDS011;32906;48.542;12.136;2022-07-10T00:44:54;2.03;;;1.83;;
47151;SDS011;32906;48.542;12.136;2022-07-10T00:47:21;2.50;;;2.00;;
47151;SDS011;32906;48.542;12.136;2022-07-10T00:49:49;3.22;;;2.13;;
47151;SDS011;32906;48.542;12.136;2022-07-10T00:52:16;2.38;;;2.17;;
47151;SDS011;32906;48.542;12.136;2022-07-10T00:54:45;2.60;;;2.03;;
47151;SDS011;32906;48.542;12.136;2022-07-10T00:57:14;2.30;;;1.55;;
47151;SDS011;32906;48.542;12.136;2022-07-10T00:59:41;3.03;;;1.95;;
47151;SDS011;32906;48.542;12.136;2022-07-10T01:02:09;3.40;;;2.25;;
47151;SDS011;32906;48.542;12.136;2022-07-10T01:04:36;2.60;;;1.75;;
47151;SDS011;32906;48.542;12.136;2022-07-10T01:07:04;2.13;;;1.92;;
47151;SDS011;32906;48.542;12.136;2022-07-10T01:09:31;3.20;;;1.98;;
47151;SDS011;32906;48.542;12.136;2022-07-10T01:11:59;2.03;;;1.90;;
47151;SDS011;32906;48.542;12.136;2022-07-10T01:14:29;2.22;;;1.38;;
47151;SDS011;32906;48.542;12.136;2022-07-10T01:16:57;1.98;;;1.77;;
47151;SDS011;32906;48.542;12.136;2022-07-10T01:19:24;2.55;;;2.13;;
47151;SDS011;32906;48.542;12.136;2022-07-10T01:21:52;2.60;;;1.95;;
47151;SDS011;32906;48.542;12.136;2022-07-10T01:24:20;2.22;;;2.03;;
47151;SDS011;32906;48.542;12.136;2022-07-10T01:26:47;3.05;;;2.75;;
47151;SDS011;32906;48.542;12.136;2022-07-10T01:29:14;3.30;;;1.70;;
47151;SDS011;32906;48.542;12.136;2022-07-10T01:31:42;2.08;;;1.45;;
47151;SDS011;32906;48.542;12.136;2022-07-10T01:34:10;5.50;;;2.15;;
47151;SDS011;32906;48.542;12.136;2022-07-10T01:36:37;2.80;;;1.98;;
47151;SDS011;32906;48.542;12.136;2022-07-10T01:39:06;2.35;;;2.15;;
47151;SDS011;32906;48.542;12.136;2022-07-10T01:41:33;3.92;;;1.80;;
47151;SDS011;32906;48.542;12.136;2022-07-10T01:44:01;5.05;;;2.15;;
47151;SDS011;32906;48.542;12.136;2022-07-10T01:46:28;3.85;;;1.88;;
47151;SDS011;32906;48.542;12.136;2022-07-10T01:48:56;3.17;;;2.08;;
47151;SDS011;32906;48.542;12.136;2022-07-10T01:51:23;4.38;;;2.08;;
47151;SDS011;32906;48.542;12.136;2022-07-10T01:53:50;2.10;;;1.63;;
47151;SDS011;32906;48.542;12.136;2022-07-10T01:56:19;7.47;;;2.00;;
47151;SDS011;32906;48.542;12.136;2022-07-10T01:58:46;3.13;;;2.08;;
47151;SDS011;32906;48.542;12.136;2022-07-10T02:01:14;3.85;;;2.38;;
47151;SDS011;32906;48.542;12.136;2022-07-10T02:03:41;2.65;;;2.30;;
47151;SDS011;32906;48.542;12.136;2022-07-10T02:06:25;2.40;;;2.20;;
47151;SDS011;32906;48.542;12.136;2022-07-10T02:08:53;3.55;;;2.60;;
47151;SDS011;32906;48.542;12.136;2022-07-10T02:11:21;3.97;;;2.20;;
47151;SDS011;32906;48.542;12.136;2022-07-10T02:13:48;2.85;;;2.03;;
47151;SDS011;32906;48.542;12.136;2022-07-10T02:16:16;3.20;;;2.78;;
47151;SDS011;32906;48.542;12.136;2022-07-10T02:18:43;3.67;;;2.17;;
47151;SDS011;32906;48.542;12.136;2022-07-10T02:21:10;5.78;;;3.08;;
47151;SDS011;32906;48.542;12.136;2022-07-10T02:23:37;3.13;;;2.50;;
47151;SDS011;32906;48.542;12.136;2022-07-10T02:26:06;4.93;;;2.80;;
47151;SDS011;32906;48.542;12.136;2022-07-10T02:28:34;5.97;;;2.50;;
47151;SDS011;32906;48.542;12.136;2022-07-10T02:31:01;2.30;;;2.10;;
47151;SDS011;32906;48.542;12.136;2022-07-10T02:33:29;4.70;;;2.60;;
47151;SDS011;32906;48.542;12.136;2022-07-10T02:35:56;4.90;;;2.97;;
47151;SDS011;32906;48.542;12.136;2022-07-10T02:38:23;6.93;;;2.80;;
47151;SDS011;32906;48.542;12.136;2022-07-10T02:40:50;2.50;;;2.30;;
47151;SDS011;32906;48.542;12.136;2022-07-10T02:43:18;3.17;;;2.78;;
47151;SDS011;32906;48.542;12.136;2022-07-10T02:45:47;2.75;;;2.55;;
47151;SDS011;32906;48.542;12.136;2022-07-10T02:48:14;6.13;;;2.85;;
47151;SDS011;32906;48.542;12.136;2022-07-10T02:50:43;6.18;;;2.72;;
47151;SDS011;32906;48.542;12.136;2022-07-10T02:53:10;3.15;;;2.85;;
47151;SDS011;32906;48.542;12.136;2022-07-10T02:55:37;2.78;;;2.33;;
47151;SDS011;32906;48.542;12.136;2022-07-10T02:58:05;2.38;;;2.08;;
47151;SDS011;32906;48.542;12.136;2022-07-10T03:00:32;3.38;;;2.55;;
47151;SDS011;32906;48.542;12.136;2022-07-10T03:03:00;3.30;;;2.13;;
47151;SDS011;32906;48.542;12.136;2022-07-10T03:05:28;3.63;;;2.85;;
47151;SDS011;32906;48.542;12.136;2022-07-10T03:07:55;3.05;;;2.28;;
47151;SDS011;32906;48.542;12.136;2022-07-10T03:10:22;3.90;;;2.33;;
47151;SDS011;32906;48.542;12.136;2022-07-10T03:12:50;2.65;;;2.38;;
47151;SDS011;32906;48.542;12.136;2022-07-10T03:15:17;3.53;;;2.00;;
47151;SDS011;32906;48.542;12.136;2022-07-10T03:17:44;2.17;;;1.95;;
47151;SDS011;32906;48.542;12.136;2022-07-10T03:20:13;2.50;;;2.20;;
47151;SDS011;32906;48.542;12.136;2022-07-10T03:22:40;2.03;;;1.83;;
47151;SDS011;32906;48.542;12.136;2022-07-10T03:25:08;2.45;;;2.00;;
47151;SDS011;32906;48.542;12.136;2022-07-10T03:27:35;2.72;;;2.30;;
47151;SDS011;32906;48.542;12.136;2022-07-10T03:30:02;2.42;;;2.08;;
47151;SDS011;32906;48.542;12.136;2022-07-10T03:32:30;2.83;;;2.20;;
47151;SDS011;32906;48.542;12.136;2022-07-10T03:34:57;5.38;;;2.05;;
47151;SDS011;32906;48.542;12.136;2022-07-10T03:37:26;4.05;;;3.00;;
47151;SDS011;32906;48.542;12.136;2022-07-10T03:39:53;3.13;;;1.70;;
47151;SDS011;32906;48.542;12.136;2022-07-10T03:42:20;2.75;;;2.33;;
47151;SDS011;32906;48.542;12.136;2022-07-10T03:44:47;2.80;;;1.70;;
47151;SDS011;32906;48.542;12.136;2022-07-10T03:47:15;2.35;;;1.75;;
47151;SDS011;32906;48.542;12.136;2022-07-10T03:49:42;2.47;;;1.73;;
47151;SDS011;32906;48.542;12.136;2022-07-10T03:52:09;2.22;;;1.40;;
47151;SDS011;32906;48.542;12.136;2022-07-10T03:54:38;1.80;;;1.40;;
47151;SDS011;32906;48.542;12.136;2022-07-10T03:57:05;2.58;;;1.60;;
47151;SDS011;32906;48.542;12.136;2022-07-10T03:59:50;2.47;;;1.70;;
47151;SDS011;32906;48.542;12.136;2022-07-10T04:02:17;1.58;;;1.42;;
47151;SDS011;32906;48.542;12.136;2022-07-10T04:04:44;3.08;;;1.92;;
47151;SDS011;32906;48.542;12.136;2022-07-10T04:07:11;1.50;;;1.35;;
47151;SDS011;32906;48.542;12.136;2022-07-10T04:09:40;2.92;;;1.30;;
47151;SDS011;32906;48.542;12.136;2022-07-10T04:12:07;1.70;;;1.60;;
47151;SDS011;32906;48.542;12.136;2022-07-10T04:14:35;1.70;;;1.58;;
47151;SDS011;32906;48.542;12.136;2022-07-10T04:17:02;5.13;;;1.75;;
47151;SDS011;32906;48.542;12.136;2022-07-10T04:19:29;2.80;;;1.60;;
47151;SDS011;32906;48.542;12.136;2022-07-10T04:21:56;3.28;;;1.65;;
47151;SDS011;32906;48.542;12.136;2022-07-10T04:24:24;2.75;;;1.52;;
47151;SDS011;32906;48.542;12.136;2022-07-10T04:26:52;4.88;;;1.73;;
47151;SDS011;32906;48.542;12.136;2022-07-10T04:29:21;2.25;;;1.70;;
47151;SDS011;32906;48.542;12.136;2022-07-10T04:31:48;2.10;;;1.52;;
47151;SDS011;32906;48.542;12.136;2022-07-10T04:34:15;2.10;;;1.38;;
47151;SDS011;32906;48.542;12.136;2022-07-10T04:36:42;1.80;;;1.52;;
47151;SDS011;32906;48.542;12.136;2022-07-10T04:39:09;2.92;;;1.45;;
47151;SDS011;32906;48.542;12.136;2022-07-10T04:41:37;4.00;;;1.33;;
47151;SDS011;32906;48.542;12.136;2022-07-10T04:44:05;2.58;;;1.80;;
47151;SDS011;32906;48.542;12.136;2022-07-10T04:46:33;2.25;;;1.48;;
47151;SDS011;32906;48.542;12.136;2022-07-10T04:49:00;5.35;;;2.50;;
47151;SDS011;32906;48.542;12.136;2022-07-10T04:51:27;2.42;;;2.20;;
47151;SDS011;32906;48.542;12.136;2022-07-10T04:53:54;2.42;;;1.83;;
47151;SDS011;32906;48.542;12.136;2022-07-10T04:56:21;1.90;;;1.40;;
47151;SDS011;32906;48.542;12.136;2022-07-10T04:58:49;1.67;;;1.55;;
47151;SDS011;32906;48.542;12.136;2022-07-10T05:01:17;2.10;;;1.90;;
47151;SDS011;32906;48.542;12.136;2022-07-10T05:03:45;3.00;;;2.30;;
47151;SDS011;32906;48.542;12.136;2022-07-10T05:06:12;3.25;;;2.00;;
47151;SDS011;32906;48.542;12.136;2022-07-10T05:08:39;3.20;;;1.50;;
47151;SDS011;32906;48.542;12.136;2022-07-10T05:11:06;2.00;;;1.40;;
47151;SDS011;32906;48.542;12.136;2022-07-10T05:13:33;2.38;;;2.08;;
47151;SDS011;32906;48.542;12.136;2022-07-10T05:16:01;1.90;;;1.70;;
47151;SDS011;32906;48.542;12.136;2022-07-10T05:18:29;1.80;;;1.45;;
47151;SDS011;32906;48.542;12.136;2022-07-10T05:20:56;3.90;;;1.40;;
47151;SDS011;32906;48.542;12.136;2022-07-10T05:23:24;1.55;;;1.45;;
47151;SDS011;32906;48.542;12.136;2022-07-10T05:25:51;1.60;;;1.20;;
47151;SDS011;32906;48.542;12.136;2022-07-10T05:28:18;2.17;;;1.60;;
47151;SDS011;32906;48.542;12.136;2022-07-10T05:30:45;2.13;;;1.50;;
47151;SDS011;32906;48.542;12.136;2022-07-10T05:33:14;1.75;;;1.10;;
47151;SDS011;32906;48.542;12.136;2022-07-10T05:35:42;1.55;;;1.23;;
47151;SDS011;32906;48.542;12.136;2022-07-10T05:38:09;4.32;;;1.10;;
47151;SDS011;32906;48.542;12.136;2022-07-10T05:40:37;4.43;;;1.60;;
47151;SDS011;32906;48.542;12.136;2022-07-10T05:43:04;3.83;;;1.30;;
47151;SDS011;32906;48.542;12.136;2022-07-10T05:45:31;1.98;;;1.13;;
47151;SDS011;32906;48.542;12.136;2022-07-10T05:47:58;1.58;;;1.30;;
47151;SDS011;32906;48.542;12.136;2022-07-10T05:50:26;3.60;;;1.40;;
47151;SDS011;32906;48.542;12.136;2022-07-10T05:52:54;1.25;;;0.88;;
47151;SDS011;32906;48.542;12.136;2022-07-10T05:55:22;3.05;;;0.90;;
47151;SDS011;32906;48.542;12.136;2022-07-10T05:57:50;1.27;;;0.85;;
47151;SDS011;32906;48.542;12.136;2022-07-10T06:00:17;1.65;;;1.25;;
47151;SDS011;32906;48.542;12.136;2022-07-10T06:02:45;1.60;;;0.85;;
47151;SDS011;32906;48.542;12.136;2022-07-10T06:05:12;1.75;;;1.13;;
47151;SDS011;32906;48.542;12.136;2022-07-10T06:07:39;1.80;;;0.90;;
47151;SDS011;32906;48.542;12.136;2022-07-10T06:10:08;2.67;;;1.35;;
47151;SDS011;32906;48.542;12.136;2022-07-10T06:12:36;2.15;;;1.02;;
47151;SDS011;32906;48.542;12.136;2022-07-10T06:15:03;1.70;;;1.35;;
47151;SDS011;32906;48.542;12.136;2022-07-10T06:17:31;3.10;;;1.00;;
47151;SDS011;32906;48.542;12.136;2022-07-10T06:19:58;2.85;;;1.08;;
47151;SDS011;32906;48.542;12.136;2022-07-10T06:22:25;2.25;;;0.70;;
47151;SDS011;32906;48.542;12.136;2022-07-10T06:25:00;2.08;;;1.38;;
47151;SDS011;32906;48.542;12.136;2022-07-10T06:27:29;1.63;;;0.90;;
47151;SDS011;32906;48.542;12.136;2022-07-10T06:29:57;1.17;;;0.88;;
47151;SDS011;32906;48.542;12.136;2022-07-10T06:32:24;1.25;;;0.70;;
47151;SDS011;32906;48.542;12.136;2022-07-10T06:34:51;1.95;;;1.20;;
47151;SDS011;32906;48.542;12.136;2022-07-10T06:37:19;1.02;;;0.82;;
47151;SDS011;32906;48.542;12.136;2022-07-10T06:39:46;1.20;;;0.75;;
47151;SDS011;32906;48.542;12.136;2022-07-10T06:42:14;6.22;;;0.90;;
47151;SDS011;32906;48.542;12.136;2022-07-10T06:44:47;3.08;;;0.75;;
47151;SDS011;32906;48.542;12.136;2022-07-10T06:47:15;2.17;;;0.80;;
47151;SDS011;32906;48.542;12.136;2022-07-10T06:50:01;2.70;;;0.70;;
47151;SDS011;32906;48.542;12.136;2022-07-10T06:52:28;3.47;;;1.13;;
47151;SDS011;32906;48.542;12.136;2022-07-10T06:54:57;1.70;;;0.65;;
47151;SDS011;32906;48.542;12.136;2022-07-10T06:57:25;1.90;;;0.95;;
47151;SDS011;32906;48.542;12.136;2022-07-10T06:59:54;1.02;;;0.80;;
47151;SDS011;32906;48.542;12.136;2022-07-10T07:02:21;1.20;;;0.70;;
47151;SDS011;32906;48.542;12.136;2022-07-10T07:04:48;1.05;;;0.88;;
47151;SDS011;32906;48.542;12.136;2022-07-10T07:07:16;2.70;;;1.00;;
47151;SDS011;32906;48.542;12.136;2022-07-10T07:09:43;1.23;;;0.73;;
47151;SDS011;32906;48.542;12.136;2022-07-10T07:12:14;1.65;;;0.80;;
47151;SDS011;32906;48.542;12.136;2022-07-10T07:14:42;2.78;;;0.73;;
47151;SDS011;32906;48.542;12.136;2022-07-10T07:17:11;3.22;;;1.02;;
47151;SDS011;32906;48.542;12.136;2022-07-10T07:19:40;0.88;;;0.82;;
47151;SDS011;32906;48.542;12.136;2022-07-10T07:22:25;1.88;;;0.75;;
47151;SDS011;32906;48.542;12.136;2022-07-10T07:25:10;1.48;;;1.08;;
47151;SDS011;32906;48.542;12.136;2022-07-10T07:27:38;2.38;;;0.80;;
47151;SDS011;32906;48.542;12.136;2022-07-10T07:30:06;1.40;;;0.80;;
47151;SDS011;32906;48.542;12.136;2022-07-10T07:32:37;2.33;;;0.70;;
47151;SDS011;32906;48.542;12.136;2022-07-10T07:35:05;1.35;;;0.60;;
47151;SDS011;32906;48.542;12.136;2022-07-10T07:37:36;1.92;;;0.75;;
47151;SDS011;32906;48.542;12.136;2022-07-10T07:40:04;1.73;;;0.80;;
47151;SDS011;32906;48.542;12.136;2022-07-10T07:42:31;0.80;;;0.57;;
47151;SDS011;32906;48.542;12.136;2022-07-10T07:44:58;1.80;;;0.80;;
47151;SDS011;32906;48.542;12.136;2022-07-10T07:47:26;2.58;;;0.88;;
47151;SDS011;32906;48.542;12.136;2022-07-10T07:49:55;1.33;;;0.90;;
47151;SDS011;32906;48.542;12.136;2022-07-10T07:52:22;1.60;;;0.65;;
47151;SDS011;32906;48.542;12.136;2022-07-10T07:54:49;1.15;;;0.70;;
47151;SDS011;32906;48.542;12.136;2022-07-10T07:57:17;4.45;;;1.40;;
47151;SDS011;32906;48.542;12.136;2022-07-10T07:59:44;2.70;;;0.68;;
47151;SDS011;32906;48.542;12.136;2022-07-10T08:02:11;1.40;;;0.70;;
47151;SDS011;32906;48.542;12.136;2022-07-10T08:04:39;1.20;;;0.70;;
47151;SDS011;32906;48.542;12.136;2022-07-10T08:07:07;3.45;;;0.70;;
47151;SDS011;32906;48.542;12.136;2022-07-10T08:09:35;3.75;;;0.80;;
47151;SDS011;32906;48.542;12.136;2022-07-10T08:12:02;1.90;;;0.68;;
47151;SDS011;32906;48.542;12.136;2022-07-10T08:14:29;4.65;;;1.10;;
47151;SDS011;32906;48.542;12.136;2022-07-10T08:16:57;4.35;;;0.80;;
47151;SDS011;32906;48.542;12.136;2022-07-10T08:19:25;1.58;;;0.60;;
47151;SDS011;32906;48.542;12.136;2022-07-10T08:21:52;1.25;;;0.60;;
47151;SDS011;32906;48.542;12.136;2022-07-10T08:24:21;1.52;;;0.65;;
47151;SDS011;32906;48.542;12.136;2022-07-10T08:26:48;0.73;;;0.40;;
47151;SDS011;32906;48.542;12.136;2022-07-10T08:29:16;2.55;;;0.60;;
47151;SDS011;32906;48.542;12.136;2022-07-10T08:31:43;2.42;;;0.77;;
47151;SDS011;32906;48.542;12.136;2022-07-10T08:34:11;1.92;;;0.80;;
47151;SDS011;32906;48.542;12.136;2022-07-10T08:36:38;2.05;;;0.60;;
47151;SDS011;32906;48.542;12.136;2022-07-10T08:39:05;2.17;;;0.70;;
47151;SDS011;32906;48.542;12.136;2022-07-10T08:41:34;1.55;;;0.50;;
47151;SDS011;32906;48.542;12.136;2022-07-10T08:44:01;2.70;;;0.60;;
47151;SDS011;32906;48.542;12.136;2022-07-10T08:46:29;1.50;;;0.80;;
47151;SDS011;32906;48.542;12.136;2022-07-10T08:48:58;0.98;;;0.45;;
47151;SDS011;32906;48.542;12.136;2022-07-10T08:51:34;4.40;;;0.63;;
47151;SDS011;32906;48.542;12.136;2022-07-10T08:56:29;1.00;;;0.73;;
47151;SDS011;32906;48.542;12.136;2022-07-10T08:58:58;1.98;;;0.60;;
47151;SDS011;32906;48.542;12.136;2022-07-10T09:01:26;3.05;;;0.50;;
47151;SDS011;32906;48.542;12.136;2022-07-10T09:03:53;2.00;;;0.40;;
47151;SDS011;32906;48.542;12.136;2022-07-10T09:06:20;1.73;;;0.40;;
47151;SDS011;32906;48.542;12.136;2022-07-10T09:08:57;2.20;;;0.60;;
47151;SDS011;32906;48.542;12.136;2022-07-10T09:11:25;1.27;;;0.40;;
47151;SDS011;32906;48.542;12.136;2022-07-10T09:13:55;2.33;;;0.70;;
47151;SDS011;32906;48.542;12.136;2022-07-10T09:16:25;0.98;;;0.40;;
47151;SDS011;32906;48.542;12.136;2022-07-10T09:18:53;0.80;;;0.30;;
47151;SDS011;32906;48.542;12.136;2022-07-10T09:21:20;1.23;;;0.40;;
47151;SDS011;32906;48.542;12.136;2022-07-10T09:23:47;0.45;;;0.20;;
47151;SDS011;32906;48.542;12.136;2022-07-10T09:26:15;1.00;;;0.38;;
47151;SDS011;32906;48.542;12.136;2022-07-10T09:28:43;1.05;;;0.50;;
47151;SDS011;32906;48.542;12.136;2022-07-10T09:31:11;2.85;;;0.60;;
47151;SDS011;32906;48.542;12.136;2022-07-10T09:33:39;1.55;;;0.32;;
47151;SDS011;32906;48.542;12.136;2022-07-10T09:36:07;2.25;;;0.57;;
47151;SDS011;32906;48.542;12.136;2022-07-10T09:38:54;3.30;;;0.43;;
47151;SDS011;32906;48.542;12.136;2022-07-10T09:41:23;5.38;;;0.30;;
47151;SDS011;32906;48.542;12.136;2022-07-10T09:43:51;1.38;;;0.25;;
47151;SDS011;32906;48.542;12.136;2022-07-10T09:46:21;2.05;;;0.43;;
47151;SDS011;32906;48.542;12.136;2022-07-10T09:48:57;0.63;;;0.40;;
47151;SDS011;32906;48.542;12.136;2022-07-10T09:51:28;1.92;;;0.50;;
47151;SDS011;32906;48.542;12.136;2022-07-10T09:53:56;1.23;;;0.20;;
47151;SDS011;32906;48.542;12.136;2022-07-10T09:56:26;2.28;;;0.38;;
47151;SDS011;32906;48.542;12.136;2022-07-10T09:58:54;1.08;;;0.30;;
47151;SDS011;32906;48.542;12.136;2022-07-10T10:01:24;1.23;;;0.38;;
47151;SDS011;32906;48.542;12.136;2022-07-10T10:03:53;0.88;;;0.35;;
47151;SDS011;32906;48.542;12.136;2022-07-10T10:06:25;1.65;;;0.30;;
47151;SDS011;32906;48.542;12.136;2022-07-10T10:08:55;3.15;;;0.40;;
47151;SDS011;32906;48.542;12.136;2022-07-10T10:11:25;0.70;;;0.30;;
47151;SDS011;32906;48.542;12.136;2022-07-10T10:13:53;1.88;;;0.38;;
47151;SDS011;32906;48.542;12.136;2022-07-10T10:16:20;2.75;;;0.25;;
47151;SDS011;32906;48.542;12.136;2022-07-10T10:18:49;0.50;;;0.30;;
47151;SDS011;32906;48.542;12.136;2022-07-10T10:21:40;1.65;;;0.22;;
47151;SDS011;32906;48.542;12.136;2022-07-10T10:24:07;2.92;;;0.30;;
47151;SDS011;32906;48.542;12.136;2022-07-10T10:26:35;0.50;;;0.35;;
47151;SDS011;32906;48.542;12.136;2022-07-10T10:29:03;0.38;;;0.17;;
47151;SDS011;32906;48.542;12.136;2022-07-10T10:31:31;1.90;;;0.20;;
47151;SDS011;32906;48.542;12.136;2022-07-10T10:33:59;2.13;;;0.65;;
47151;SDS011;32906;48.542;12.136;2022-07-10T10:39:14;1.75;;;0.40;;
47151;SDS011;32906;48.542;12.136;2022-07-10T10:41:46;4.93;;;0.20;;
47151;SDS011;32906;48.542;12.136;2022-07-10T10:44:20;1.73;;;0.38;;
47151;SDS011;32906;48.542;12.136;2022-07-10T10:46:58;0.75;;;0.30;;
47151;SDS011;32906;48.542;12.136;2022-07-10T10:52:13;1.23;;;0.20;;
47151;SDS011;32906;48.542;12.136;2022-07-10T10:57:34;3.28;;;0.20;;
47151;SDS011;32906;48.542;12.136;2022-07-10T11:00:05;3.38;;;0.50;;
47151;SDS011;32906;48.542;12.136;2022-07-10T11:02:34;0.70;;;0.20;;
47151;SDS011;32906;48.542;12.136;2022-07-10T11:07:51;0.77;;;0.45;;
47151;SDS011;32906;48.542;12.136;2022-07-10T11:10:28;0.47;;;0.20;;
47151;SDS011;32906;48.542;12.136;2022-07-10T11:13:01;2.25;;;0.20;;
47151;SDS011;32906;48.542;12.136;2022-07-10T11:15:28;1.15;;;0.30;;
47151;SDS011;32906;48.542;12.136;2022-07-10T11:17:58;1.67;;;0.22;;
47151;SDS011;32906;48.542;12.136;2022-07-10T11:20:25;0.82;;;0.30;;
47151;SDS011;32906;48.542;12.136;2022-07-10T11:22:57;2.78;;;0.40;;
47151;SDS011;32906;48.542;12.136;2022-07-10T11:25:32;0.47;;;0.17;;
47151;SDS011;32906;48.542;12.136;2022-07-10T11:28:09;2.40;;;0.30;;
47151;SDS011;32906;48.542;12.136;2022-07-10T11:30:47;1.75;;;0.20;;
47151;SDS011;32906;48.542;12.136;2022-07-10T11:33:14;0.47;;;0.20;;
47151;SDS011;32906;48.542;12.136;2022-07-10T11:35:44;1.23;;;0.20;;
47151;SDS011;32906;48.542;12.136;2022-07-10T11:38:12;1.13;;;0.10;;
47151;SDS011;32906;48.542;12.136;2022-07-10T11:40:39;1.17;;;0.20;;
47151;SDS011;32906;48.542;12.136;2022-07-10T11:43:09;2.30;;;0.25;;
47151;SDS011;32906;48.542;12.136;2022-07-10T11:45:40;1.27;;;0.47;;
47151;SDS011;32906;48.542;12.136;2022-07-10T11:48:07;2.63;;;0.40;;
47151;SDS011;32906;48.542;12.136;2022-07-10T11:50:34;0.52;;;0.20;;
47151;SDS011;32906;48.542;12.136;2022-07-10T11:53:02;1.23;;;0.50;;
47151;SDS011;32906;48.542;12.136;2022-07-10T11:55:30;2.65;;;0.30;;
47151;SDS011;32906;48.542;12.136;2022-07-10T11:58:13;0.50;;;0.20;;
47151;SDS011;32906;48.542;12.136;2022-07-10T12:00:40;1.83;;;0.40;;
47151;SDS011;32906;48.542;12.136;2022-07-10T12:03:17;0.50;;;0.13;;
47151;SDS011;32906;48.542;12.136;2022-07-10T12:05:45;0.98;;;0.20;;
47151;SDS011;32906;48.542;12.136;2022-07-10T12:08:13;2.38;;;0.20;;
47151;SDS011;32906;48.542;12.136;2022-07-10T12:10:41;1.20;;;0.20;;
47151;SDS011;32906;48.542;12.136;2022-07-10T12:13:09;1.55;;;0.30;;
47151;SDS011;32906;48.542;12.136;2022-07-10T12:15:38;0.98;;;0.10;;
47151;SDS011;32906;48.542;12.136;2022-07-10T12:18:06;0.40;;;0.20;;
47151;SDS011;32906;48.542;12.136;2022-07-10T12:20:33;0.50;;;0.10;;
47151;SDS011;32906;48.542;12.136;2022-07-10T12:23:02;2.88;;;0.15;;
47151;SDS011;32906;48.542;12.136;2022-07-10T12:25:30;2.10;;;0.20;;
47151;SDS011;32906;48.542;12.136;2022-07-10T12:27:57;1.77;;;0.20;;
47151;SDS011;32906;48.542;12.136;2022-07-10T12:30:42;0.93;;;0.20;;
47151;SDS011;32906;48.542;12.136;2022-07-10T12:33:10;4.68;;;0.30;;
47151;SDS011;32906;48.542;12.136;2022-07-10T12:35:46;2.35;;;0.30;;
47151;SDS011;32906;48.542;12.136;2022-07-10T12:38:14;2.88;;;0.45;;
47151;SDS011;32906;48.542;12.136;2022-07-10T12:40:41;0.57;;;0.10;;
47151;SDS011;32906;48.542;12.136;2022-07-10T12:43:09;1.38;;;0.50;;
47151;SDS011;32906;48.542;12.136;2022-07-10T12:45:37;0.55;;;0.20;;
47151;SDS011;32906;48.542;12.136;2022-07-10T12:48:06;0.52;;;0.10;;
47151;SDS011;32906;48.542;12.136;2022-07-10T12:50:33;2.05;;;0.20;;
47151;SDS011;32906;48.542;12.136;2022-07-10T12:53:07;0.93;;;0.25;;
47151;SDS011;32906;48.542;12.136;2022-07-10T12:55:34;3.10;;;0.10;;
47151;SDS011;32906;48.542;12.136;2022-07-10T12:58:06;0.77;;;0.15;;
47151;SDS011;32906;48.542;12.136;2022-07-10T13:00:35;1.02;;;0.30;;
47151;SDS011;32906;48.542;12.136;2022-07-10T13:03:03;0.50;;;0.20;;
47151;SDS011;32906;48.542;12.136;2022-07-10T13:05:32;1.48;;;0.20;;
47151;SDS011;32906;48.542;12.136;2022-07-10T13:08:06;0.98;;;0.00;;
47151;SDS011;32906;48.542;12.136;2022-07-10T13:10:36;1.55;;;0.10;;
47151;SDS011;32906;48.542;12.136;2022-07-10T13:13:04;0.93;;;0.10;;
47151;SDS011;32906;48.542;12.136;2022-07-10T13:15:32;3.75;;;0.15;;
47151;SDS011;32906;48.542;12.136;2022-07-10T13:18:05;0.45;;;0.10;;
47151;SDS011;32906;48.542;12.136;2022-07-10T13:20:33;0.60;;;0.30;;
47151;SDS011;32906;48.542;12.136;2022-07-10T13:23:00;1.17;;;0.03;;
47151;SDS011;32906;48.542;12.136;2022-07-10T13:25:28;0.35;;;0.10;;
47151;SDS011;32906;48.542;12.136;2022-07-10T13:27:55;0.30;;;0.00;;
47151;SDS011;32906;48.542;12.136;2022-07-10T13:30:22;1.20;;;0.30;;
47151;SDS011;32906;48.542;12.136;2022-07-10T13:32:49;8.07;;;1.95;;
47151;SDS011;32906;48.542;12.136;2022-07-10T13:35:17;7.38;;;1.23;;
47151;SDS011;32906;48.542;12.136;2022-07-10T13:37:45;2.63;;;0.70;;
47151;SDS011;32906;48.542;12.136;2022-07-10T13:40:13;1.50;;;0.75;;
47151;SDS011;32906;48.542;12.136;2022-07-10T13:42:40;1.67;;;0.50;;
47151;SDS011;32906;48.542;12.136;2022-07-10T13:45:08;8.25;;;0.35;;
47151;SDS011;32906;48.542;12.136;2022-07-10T13:47:35;1.77;;;0.20;;
47151;SDS011;32906;48.542;12.136;2022-07-10T13:50:02;3.67;;;0.30;;
47151;SDS011;32906;48.542;12.136;2022-07-10T13:52:30;1.73;;;0.20;;
47151;SDS011;32906;48.542;12.136;2022-07-10T13:54:58;2.63;;;0.25;;
47151;SDS011;32906;48.542;12.136;2022-07-10T13:57:26;0.70;;;0.20;;
47151;SDS011;32906;48.542;12.136;2022-07-10T13:59:53;1.50;;;0.20;;
47151;SDS011;32906;48.542;12.136;2022-07-10T14:02:21;1.33;;;0.20;;
47151;SDS011;32906;48.542;12.136;2022-07-10T14:04:48;0.50;;;0.10;;
47151;SDS011;32906;48.542;12.136;2022-07-10T14:07:15;2.25;;;0.20;;
47151;SDS011;32906;48.542;12.136;2022-07-10T14:09:42;0.93;;;0.10;;
47151;SDS011;32906;48.542;12.136;2022-07-10T14:12:11;0.30;;;0.00;;
47151;SDS011;32906;48.542;12.136;2022-07-10T14:14:38;5.53;;;0.20;;
47151;SDS011;32906;48.542;12.136;2022-07-10T14:17:06;1.63;;;0.20;;
47151;SDS011;32906;48.542;12.136;2022-07-10T14:19:33;0.43;;;0.20;;
47151;SDS011;32906;48.542;12.136;2022-07-10T14:22:00;1.45;;;0.10;;
47151;SDS011;32906;48.542;12.136;2022-07-10T14:24:28;3.60;;;0.00;;
47151;SDS011;32906;48.542;12.136;2022-07-10T14:26:55;2.17;;;0.20;;
47151;SDS011;32906;48.542;12.136;2022-07-10T14:29:24;0.22;;;0.10;;
47151;SDS011;32906;48.542;12.136;2022-07-10T14:31:51;0.65;;;0.10;;
47151;SDS011;32906;48.542;12.136;2022-07-10T14:34:21;0.70;;;0.10;;
47151;SDS011;32906;48.542;12.136;2022-07-10T14:36:49;0.32;;;0.10;;
47151;SDS011;32906;48.542;12.136;2022-07-10T14:39:16;2.88;;;0.50;;
47151;SDS011;32906;48.542;12.136;2022-07-10T14:41:44;1.17;;;0.20;;
47151;SDS011;32906;48.542;12.136;2022-07-10T14:44:11;1.00;;;0.10;;
47151;SDS011;32906;48.542;12.136;2022-07-10T14:46:40;0.85;;;0.20;;
47151;SDS011;32906;48.542;12.136;2022-07-10T14:49:07;1.35;;;0.10;;
47151;SDS011;32906;48.542;12.136;2022-07-10T14:51:35;0.75;;;0.10;;
47151;SDS011;32906;48.542;12.136;2022-07-10T14:54:02;0.10;;;0.10;;